Aérodrome :
LOGIN :

S'inscrire | Disclaimer

   EN    FR    IT 

 










Légende :    VFR   VFR Marginal   IFR   IFR Intensif   IFR Très Intensif
Visi : 
Plafond : 
>= 8 km
>= 3000ft
5 à 8 km
1000 à 3000 ft
1500m à 5 km
500 à 1000 ft
800 à 1500m
200 à 500 ft
< 800m
< 200 ft
Symboles :   Orages  Brouillard  Fortes neiges  Fortes précipitations  Vent > 20 kt
SIGMETs :   Divers  Orages  Givrage  Turbulence  Onde Orograph.  Cendres Volcan.






- Altitude de l'aérodrome : 34 ft
- Code IATA : BLK


EGNH - Blackpool

DERNIER METAR :
  • 111020Z 30010KT 9999 FEW020 15/10 Q1027

METARs EXPIRÉS :
  • 110950Z 30012KT 9999 SCT020 14/09 Q1027
  • 110920Z 31012KT 9999 SCT019 15/10 Q1027
  • 110850Z 31011KT 9999 SCT019 14/10 Q1027
  • 110820Z 31010KT 9999 SCT021 14/09 Q1026

TAF TAF EGNH
Valide du 11 à 09h jusqu'au 11 à 18h UTC


110801Z 1109/1118 32008KT 9999 FEW020
PROB30
TEMPO 1109/1118 7000 SHRA
ATIS : +44 1253 343 434 (x8315)



MET'MAP, la Météo Aéronautique d'un coup d'oeil ! - Copyright ORBIFLY Décembre 2007 - Disclaimer

ORBIFLY MET'MAP TEAM :

Programmation & Développement : Alexandra Zaïnal
Sur une idée originale de : Baudouin d'Aumeries
Assistance à la programmation : Marc-Olivier Méhu
Soutien technique & logistique : Manuel Goepfert

Contact : metmap@orbifly.com




SOURCES & CREDITS :

   NOAA